createdAt,value
2018-01-13T00:02:09.078Z,96467
2018-01-13T00:04:38.070Z,96469
2018-01-13T00:07:07.776Z,96474
2018-01-13T00:09:36.723Z,96469
2018-01-13T00:12:06.450Z,96473
2018-01-13T00:14:36.167Z,96473
2018-01-13T00:17:05.135Z,96471
2018-01-13T00:19:34.854Z,96463
2018-01-13T00:22:04.585Z,96446
2018-01-13T00:24:33.526Z,96467
2018-01-13T00:27:04.539Z,96466
2018-01-13T00:29:33.498Z,96468
2018-01-13T00:32:02.447Z,96467
2018-01-13T00:34:31.413Z,96472
2018-01-13T00:37:00.357Z,96466
2018-01-13T00:39:30.090Z,96463
2018-01-13T00:41:59.043Z,96470
2018-01-13T00:44:28.011Z,96463
2018-01-13T00:46:57.062Z,96459
2018-01-13T00:49:26.790Z,96464
2018-01-13T00:51:55.734Z,96472
2018-01-13T00:54:24.697Z,96462
2018-01-13T00:56:53.650Z,96467
2018-01-13T00:59:22.638Z,96453
2018-01-13T01:01:51.586Z,96460
2018-01-13T01:04:20.534Z,96454
2018-01-13T01:06:49.498Z,96462
2018-01-13T01:09:19.212Z,96464
2018-01-13T01:11:48.955Z,96468
2018-01-13T01:14:17.897Z,96464
2018-01-13T01:16:46.863Z,96462
2018-01-13T01:19:15.814Z,96461
2018-01-13T01:21:44.778Z,96462
2018-01-13T01:24:14.498Z,96465
2018-01-13T01:26:44.226Z,96469
2018-01-13T01:29:13.169Z,96470
2018-01-13T01:31:42.138Z,96468
2018-01-13T01:34:11.098Z,96471
2018-01-13T01:36:40.080Z,96475
2018-01-13T01:39:09.796Z,96473
2018-01-13T01:41:38.746Z,96478
2018-01-13T01:44:07.705Z,96485
2018-01-13T01:46:36.653Z,96474
2018-01-13T01:49:06.390Z,96473
2018-01-13T01:51:35.333Z,96477
2018-01-13T01:54:04.326Z,96469
2018-01-13T01:56:33.278Z,96483
2018-01-13T01:59:02.223Z,96460
2018-01-13T02:01:31.866Z,96466
2018-01-13T02:04:00.817Z,96471
2018-01-13T02:06:29.782Z,96463
2018-01-13T02:08:58.807Z,96463
2018-01-13T02:11:27.779Z,96457
2018-01-13T02:13:56.731Z,96467
2018-01-13T02:16:25.705Z,96465
2018-01-13T02:18:55.418Z,96453
2018-01-13T02:21:25.153Z,96458
2018-01-13T02:23:54.094Z,96463
2018-01-13T02:26:23.095Z,96459
2018-01-13T02:28:52.810Z,96458
2018-01-13T02:31:22.542Z,96462
2018-01-13T02:33:53.439Z,96444
2018-01-13T02:36:22.402Z,96450
2018-01-13T02:38:51.360Z,96444
2018-01-13T02:41:20.321Z,96443
2018-01-13T02:43:49.262Z,96440
2018-01-13T02:46:18.241Z,96439
2018-01-13T02:48:47.190Z,96432
2018-01-13T02:51:16.153Z,96442
2018-01-13T02:53:45.110Z,96436
2018-01-13T02:56:14.078Z,96438
2018-01-13T02:58:43.154Z,96435
2018-01-13T03:01:12.122Z,96436
2018-01-13T03:03:41.071Z,96435
2018-01-13T03:06:10.792Z,96436
2018-01-13T03:08:39.783Z,96436
2018-01-13T03:11:08.731Z,96434
2018-01-13T03:13:40.770Z,96439
2018-01-13T03:16:09.731Z,96432
2018-01-13T03:18:39.466Z,96432
2018-01-13T03:21:08.413Z,96430
2018-01-13T03:23:38.146Z,96422
2018-01-13T03:26:14.270Z,96425
2018-01-13T03:28:43.630Z,96426
2018-01-13T03:31:12.582Z,96423
2018-01-13T03:33:42.285Z,96424
2018-01-13T03:36:12.014Z,96352
2018-01-13T03:38:40.960Z,96427
2018-01-13T03:41:09.921Z,96424
2018-01-13T03:43:38.870Z,96429
2018-01-13T03:46:08.609Z,96419
2018-01-13T03:48:37.559Z,96428
2018-01-13T03:51:06.534Z,96418
2018-01-13T03:53:35.486Z,96424
2018-01-13T03:56:04.457Z,96419
2018-01-13T03:58:34.181Z,96421
2018-01-13T04:01:03.142Z,96426
2018-01-13T04:03:32.094Z,96427
2018-01-13T04:06:01.173Z,96423
2018-01-13T04:08:30.118Z,96423
2018-01-13T04:10:59.066Z,96426
2018-01-13T04:13:28.030Z,96418
2018-01-13T04:15:56.982Z,96423
2018-01-13T04:18:25.951Z,96419
2018-01-13T04:20:54.902Z,96421
2018-01-13T04:23:24.638Z,96423
2018-01-13T04:25:53.590Z,96416
2018-01-13T04:28:23.330Z,96415
2018-01-13T04:30:52.274Z,96415
2018-01-13T04:33:21.316Z,96416
2018-01-13T04:35:50.399Z,96412
2018-01-13T04:38:19.492Z,96409
2018-01-13T04:40:48.496Z,96409
2018-01-13T04:43:17.899Z,96403
2018-01-13T04:45:46.846Z,96413
2018-01-13T04:48:15.791Z,96406
2018-01-13T04:50:44.760Z,96413
2018-01-13T04:53:13.894Z,96401
2018-01-13T04:55:42.851Z,96404
2018-01-13T04:58:11.797Z,96403
2018-01-13T05:00:40.758Z,96394
2018-01-13T05:03:09.706Z,96399
2018-01-13T05:05:39.494Z,96401
2018-01-13T05:08:08.382Z,96389
2018-01-13T05:10:37.349Z,96387
2018-01-13T05:13:06.303Z,96391
2018-01-13T05:15:36.157Z,96388
2018-01-13T05:18:05.098Z,96388
2018-01-13T05:20:34.814Z,96387
2018-01-13T05:23:04.555Z,96389
2018-01-13T05:25:33.498Z,96385
2018-01-13T05:28:02.464Z,96376
2018-01-13T05:30:31.416Z,96378
2018-01-13T05:33:00.374Z,96380
2018-01-13T05:35:29.323Z,96375
2018-01-13T05:37:58.291Z,96374
2018-01-13T05:40:27.235Z,96374
2018-01-13T05:42:56.221Z,96375
2018-01-13T05:45:25.154Z,96379
2018-01-13T05:47:54.889Z,96374
2018-01-13T05:50:23.836Z,96374
2018-01-13T05:52:53.026Z,96389
2018-01-13T05:55:21.971Z,96387
2018-01-13T05:57:50.916Z,96382
2018-01-13T06:00:19.882Z,96388
2018-01-13T06:02:48.822Z,96389
2018-01-13T06:05:17.790Z,96394
2018-01-13T06:07:46.743Z,96389
2018-01-13T06:10:15.710Z,96393
2018-01-13T06:12:44.661Z,96389
2018-01-13T06:15:13.626Z,96384
2018-01-13T06:17:45.759Z,96384
2018-01-13T06:20:14.750Z,96394
2018-01-13T06:22:43.701Z,96378
2018-01-13T06:25:12.642Z,96369
2018-01-13T06:27:41.618Z,96375
2018-01-13T06:30:10.566Z,96372
2018-01-13T06:32:39.530Z,96379
2018-01-13T06:35:08.487Z,96366
2018-01-13T06:37:38.229Z,96364
2018-01-13T06:40:07.166Z,96375
2018-01-13T06:42:36.133Z,96375
2018-01-13T06:45:05.082Z,96364
2018-01-13T06:47:34.046Z,96361
2018-01-13T06:50:02.994Z,96363
2018-01-13T06:52:31.961Z,96354
2018-01-13T06:55:00.906Z,96358
2018-01-13T06:57:30.194Z,96389
2018-01-13T06:59:59.143Z,96354
2018-01-13T07:02:28.094Z,96364
2018-01-13T07:04:57.060Z,96363
2018-01-13T07:07:26.011Z,96363
2018-01-13T07:09:55.751Z,96364
2018-01-13T07:12:24.700Z,96359
2018-01-13T07:14:54.846Z,96368
2018-01-13T07:17:23.786Z,96367
2018-01-13T07:19:52.742Z,96371
2018-01-13T07:22:21.698Z,96375
2018-01-13T07:24:51.416Z,96376
2018-01-13T07:27:21.145Z,96386
2018-01-13T07:29:50.094Z,96376
2018-01-13T07:32:19.063Z,96379
2018-01-13T07:34:48.026Z,96376
2018-01-13T07:37:16.986Z,96381
2018-01-13T07:39:46.702Z,96377
2018-01-13T07:42:16.430Z,96377
2018-01-13T07:44:45.387Z,96383
2018-01-13T07:47:15.114Z,96379
2018-01-13T07:49:44.836Z,96385
2018-01-13T07:52:13.802Z,96378
2018-01-13T07:54:43.514Z,96381
2018-01-13T07:57:13.243Z,96379
2018-01-13T07:59:42.187Z,96380
2018-01-13T08:02:16.515Z,96377
2018-01-13T08:04:49.343Z,96382
2018-01-13T08:07:20.399Z,96375
2018-01-13T08:09:51.477Z,96382
2018-01-13T08:12:24.538Z,96384
2018-01-13T08:14:56.175Z,96385
2018-01-13T08:17:25.494Z,96375
2018-01-13T08:19:54.983Z,96372
2018-01-13T08:22:26.139Z,96376
2018-01-13T08:34:43.883Z,96376
2018-01-13T08:42:02.071Z,96378
2018-01-13T08:47:33.324Z,96369
2018-01-13T08:50:02.332Z,96366
2018-01-13T08:52:34.724Z,96370
2018-01-13T08:55:04.744Z,96364
2018-01-13T08:57:39.800Z,96371
2018-01-13T09:14:01.197Z,96376
2018-01-13T09:16:30.307Z,96370
2018-01-13T09:18:59.273Z,96380
2018-01-13T09:21:28.350Z,96372
2018-01-13T09:23:59.353Z,96371
2018-01-13T09:26:36.939Z,96370
2018-01-13T09:29:06.246Z,96372
2018-01-13T09:31:35.223Z,96362
2018-01-13T09:34:04.319Z,96374
2018-01-13T09:36:36.794Z,96367
2018-01-13T09:39:05.931Z,96364
2018-01-13T09:41:35.715Z,96363
2018-01-13T09:44:04.670Z,96362
2018-01-13T09:46:33.688Z,96367
2018-01-13T09:49:02.619Z,96369
2018-01-13T09:51:32.327Z,96358
2018-01-13T09:54:01.307Z,96365
2018-01-13T09:56:32.101Z,96356
2018-01-13T09:59:01.116Z,96355
2018-01-13T10:04:04.284Z,96373
2018-01-13T10:06:38.117Z,96350
2018-01-13T10:09:07.047Z,96348
2018-01-13T10:11:36.025Z,96343
2018-01-13T10:14:08.738Z,96337
2018-01-13T10:16:38.798Z,96344
2018-01-13T10:19:07.738Z,96334
2018-01-13T10:21:43.085Z,96330
2018-01-13T10:24:12.043Z,96330
2018-01-13T10:26:41.022Z,96336
2018-01-13T10:29:41.447Z,96328
2018-01-13T10:32:10.412Z,96319
2018-01-13T10:34:39.367Z,96311
2018-01-13T10:37:09.730Z,96317
2018-01-13T10:39:38.694Z,96309
2018-01-13T10:42:07.658Z,96308
2018-01-13T10:44:37.387Z,96297
2018-01-13T10:47:39.498Z,96307
2018-01-13T10:50:08.463Z,96297
2018-01-13T10:52:37.474Z,96299
2018-01-13T10:55:11.592Z,96289
2018-01-13T10:57:41.448Z,96289
2018-01-13T11:00:10.403Z,96279
2018-01-13T11:02:39.363Z,96288
2018-01-13T11:05:08.339Z,96281
2018-01-13T11:07:38.074Z,96283
2018-01-13T11:10:07.058Z,96284
2018-01-13T11:12:44.170Z,96292
2018-01-13T11:15:13.974Z,96273
2018-01-13T11:17:46.236Z,96274
2018-01-13T11:20:15.206Z,96269
2018-01-13T11:22:44.231Z,96290
2018-01-13T11:25:14.158Z,96268
2018-01-13T11:27:53.798Z,96262
2018-01-13T11:30:22.779Z,96261
2018-01-13T11:32:51.741Z,96259
2018-01-13T11:35:20.754Z,96248
2018-01-13T11:37:49.728Z,96257
2018-01-13T11:40:19.443Z,96263
2018-01-13T11:43:12.298Z,96252
2018-01-13T11:45:41.466Z,96248
2018-01-13T11:48:10.451Z,96249
2018-01-13T11:50:39.547Z,96252
2018-01-13T11:53:08.534Z,96255
2018-01-13T11:55:37.486Z,96256
2018-01-13T11:58:07.464Z,96250
2018-01-13T12:00:40.098Z,96241
2018-01-13T12:03:09.063Z,96240
2018-01-13T12:05:38.006Z,96247
2018-01-13T12:08:06.978Z,96235
2018-01-13T12:10:35.934Z,96242
2018-01-13T12:13:05.862Z,96240
2018-01-13T12:15:34.813Z,96232
2018-01-13T12:18:04.578Z,96223
2018-01-13T12:20:36.598Z,96219
2018-01-13T12:23:05.922Z,96219
2018-01-13T12:25:35.825Z,96211
2018-01-13T12:28:04.780Z,96219
2018-01-13T12:30:33.746Z,96214
2018-01-13T12:33:02.698Z,96213
2018-01-13T12:35:31.666Z,96210
2018-01-13T12:38:01.382Z,96204
2018-01-13T12:40:31.119Z,96209
2018-01-13T12:43:05.938Z,96207
2018-01-13T12:45:34.902Z,96203
2018-01-13T12:48:04.618Z,96199
2018-01-13T12:50:34.357Z,96203
2018-01-13T12:53:03.312Z,96209
2018-01-13T12:55:33.063Z,96210
2018-01-13T12:58:02.965Z,96206
2018-01-13T13:00:32.170Z,96204
2018-01-13T13:03:04.738Z,96209
2018-01-13T13:05:33.735Z,96200
2018-01-13T13:08:02.687Z,96198
2018-01-13T13:10:31.642Z,96141
2018-01-13T13:13:00.610Z,96203
2018-01-13T13:15:36.219Z,96200
2018-01-13T13:18:05.190Z,96200
2018-01-13T13:20:34.138Z,96202
2018-01-13T13:23:03.103Z,96200
2018-01-13T13:25:32.825Z,96200
2018-01-13T13:28:05.961Z,96191
2018-01-13T13:30:46.291Z,96195
2018-01-13T13:33:15.251Z,96204
2018-01-13T13:35:44.198Z,96198
2018-01-13T13:38:13.166Z,96208
2018-01-13T13:40:42.113Z,96201
2018-01-13T13:43:11.083Z,96197
2018-01-13T13:45:40.038Z,96190
2018-01-13T13:48:14.186Z,96187
2018-01-13T13:50:43.138Z,96187
2018-01-13T13:53:12.098Z,96191
2018-01-13T13:55:45.659Z,96198
2018-01-13T13:58:14.772Z,96200
2018-01-13T14:00:43.764Z,96193
2018-01-13T14:03:12.711Z,96196
2018-01-13T14:05:41.694Z,96199
2018-01-13T14:08:12.339Z,95638
2018-01-13T14:10:41.310Z,96204
2018-01-13T14:13:11.043Z,96200
2018-01-13T14:15:39.990Z,96211
2018-01-13T14:18:08.958Z,96203
2018-01-13T14:20:37.915Z,96206
2018-01-13T14:23:06.886Z,96204
2018-01-13T14:25:37.555Z,96200
2018-01-13T14:28:06.522Z,96199
2018-01-13T14:30:35.484Z,96203
2018-01-13T14:33:04.477Z,96202
2018-01-13T14:35:33.434Z,96194
2018-01-13T14:38:02.374Z,96183
2018-01-13T14:40:32.114Z,96185
2018-01-13T14:43:01.110Z,96182
2018-01-13T14:45:30.058Z,96185
2018-01-13T14:47:59.016Z,96186
2018-01-13T14:50:39.637Z,96181
2018-01-13T14:53:09.359Z,96181
2018-01-13T14:55:38.327Z,96180
2018-01-13T14:58:07.271Z,96179
2018-01-13T15:00:41.991Z,96178
2018-01-13T15:03:10.977Z,96180
2018-01-13T15:05:39.938Z,96171
2018-01-13T15:08:09.656Z,96174
2018-01-13T15:10:39.386Z,96176
2018-01-13T15:13:08.338Z,96172
2018-01-13T15:15:37.318Z,96176
2018-01-13T15:18:06.274Z,96174
2018-01-13T15:20:35.240Z,96178
2018-01-13T15:23:04.187Z,96182
2018-01-13T15:25:34.072Z,96184
2018-01-13T15:28:03.018Z,96188
2018-01-13T15:30:32.783Z,96190
2018-01-13T15:33:01.732Z,96190
2018-01-13T15:35:31.448Z,96190
2018-01-13T15:38:00.482Z,96208
2018-01-13T15:40:29.435Z,96191
2018-01-13T15:42:58.404Z,96196
2018-01-13T15:45:27.346Z,96185
2018-01-13T15:47:56.314Z,96217
2018-01-13T15:50:25.268Z,96194
2018-01-13T15:52:54.233Z,96195
2018-01-13T15:55:23.186Z,96196
2018-01-13T15:57:52.276Z,96198
2018-01-13T16:00:21.999Z,96192
2018-01-13T16:02:51.027Z,96196
2018-01-13T16:05:19.999Z,96212
2018-01-13T16:07:48.956Z,96189
2018-01-13T16:10:19.852Z,96192
2018-01-13T16:12:48.838Z,96198
2018-01-13T16:15:17.822Z,95798
2018-01-13T16:17:46.763Z,96190
2018-01-13T16:20:16.500Z,96179
2018-01-13T16:22:45.444Z,96175
2018-01-13T16:25:14.444Z,96182
2018-01-13T16:27:43.374Z,96177
2018-01-13T16:30:12.336Z,96179
2018-01-13T16:32:42.050Z,96171
2018-01-13T16:35:12.111Z,96170
2018-01-13T16:37:41.055Z,96170
2018-01-13T16:40:10.778Z,96169
2018-01-13T16:42:40.519Z,96165
2018-01-13T16:45:09.471Z,96163
2018-01-13T16:47:39.206Z,96158
2018-01-13T16:50:08.155Z,96174
2018-01-13T16:52:38.030Z,96170
2018-01-13T16:55:06.977Z,96170
2018-01-13T16:57:36.741Z,96158
2018-01-13T17:00:05.692Z,96165
2018-01-13T17:02:35.410Z,96158
2018-01-13T17:05:04.380Z,96155
2018-01-13T17:07:34.551Z,96156
2018-01-13T17:10:03.508Z,96155
2018-01-13T17:12:33.222Z,96150
2018-01-13T17:15:02.199Z,96159
2018-01-13T17:17:31.917Z,96156
2018-01-13T17:20:00.890Z,96153
2018-01-13T17:22:29.843Z,96155
2018-01-13T17:24:58.806Z,96157
2018-01-13T17:27:27.754Z,96152
2018-01-13T17:29:56.727Z,96185
2018-01-13T17:32:25.679Z,96146
2018-01-13T17:34:54.678Z,96146
2018-01-13T17:37:23.634Z,96146
2018-01-13T17:39:52.619Z,96150
2018-01-13T17:42:21.570Z,96151
2018-01-13T17:44:50.514Z,96150
2018-01-13T17:47:19.522Z,96150
2018-01-13T17:49:49.245Z,96145
2018-01-13T17:52:18.215Z,96145
2018-01-13T17:54:47.929Z,96060
2018-01-13T17:57:17.658Z,96142
2018-01-13T17:59:46.602Z,96147
2018-01-13T18:02:15.566Z,96148
2018-01-13T18:04:44.561Z,96144
2018-01-13T18:07:13.523Z,96141
2018-01-13T18:09:42.466Z,96131
2018-01-13T18:12:11.438Z,96145
2018-01-13T18:14:40.385Z,96142
2018-01-13T18:17:10.437Z,96145
2018-01-13T18:19:40.329Z,96145
2018-01-13T18:22:09.281Z,96157
2018-01-13T18:24:38.246Z,96188
2018-01-13T18:27:07.193Z,96157
2018-01-13T18:29:36.931Z,96155
2018-01-13T18:32:05.879Z,96162
2018-01-13T18:34:34.844Z,96166
2018-01-13T18:37:03.802Z,96174
2018-01-13T18:39:32.767Z,96163
2018-01-13T18:42:02.507Z,96171
2018-01-13T18:44:32.209Z,96162
2018-01-13T18:47:01.301Z,96156
2018-01-13T18:49:30.262Z,96167
2018-01-13T18:51:59.986Z,96170
2018-01-13T18:54:33.246Z,96158
2018-01-13T18:57:02.198Z,96156
2018-01-13T18:59:31.166Z,96157
2018-01-13T19:02:00.898Z,96154
2018-01-13T19:04:29.849Z,96150
2018-01-13T19:06:58.817Z,96150
2018-01-13T19:09:27.763Z,96148
2018-01-13T19:11:56.726Z,96150
2018-01-13T19:14:27.391Z,96151
2018-01-13T19:16:56.350Z,96148
2018-01-13T19:19:25.290Z,96148
2018-01-13T19:21:54.250Z,96142
2018-01-13T19:24:23.580Z,96162
2018-01-13T19:26:52.519Z,96134
2018-01-13T19:29:21.470Z,96123
2018-01-13T19:31:50.438Z,96133
2018-01-13T19:34:19.387Z,96138
2018-01-13T19:36:48.361Z,96142
2018-01-13T19:39:17.319Z,96147
2018-01-13T19:41:46.285Z,96149
2018-01-13T19:44:17.963Z,95693
2018-01-13T19:46:46.953Z,96147
2018-01-13T19:49:15.902Z,96156
2018-01-13T19:51:44.862Z,96154
2018-01-13T19:54:15.071Z,96156
2018-01-13T19:56:44.247Z,96147
2018-01-13T19:59:13.143Z,96153
2018-01-13T20:01:42.090Z,96153
2018-01-13T20:04:11.054Z,96148
2018-01-13T20:06:39.998Z,96149
2018-01-13T20:09:09.732Z,96139
2018-01-13T20:11:38.689Z,96142
2018-01-13T20:14:07.656Z,96143
2018-01-13T20:16:36.602Z,96150
2018-01-13T20:19:05.563Z,96153
2018-01-13T20:21:34.510Z,96144
2018-01-13T20:24:03.481Z,96134
2018-01-13T20:26:32.428Z,96132
2018-01-13T20:29:01.399Z,96128
2018-01-13T20:31:30.379Z,96137
2018-01-13T20:33:59.353Z,96131
2018-01-13T20:36:28.294Z,96128
2018-01-13T20:38:57.266Z,96201
2018-01-13T20:41:26.232Z,96130
2018-01-13T20:43:56.158Z,96136
2018-01-13T20:46:25.109Z,96132
2018-01-13T20:48:54.074Z,96129
2018-01-13T20:51:23.014Z,96128
2018-01-13T20:53:51.986Z,96129
2018-01-13T20:56:21.717Z,96130
2018-01-13T20:58:50.796Z,96144
2018-01-13T21:01:20.512Z,96138
2018-01-13T21:03:50.245Z,96136
2018-01-13T21:06:19.223Z,96136
2018-01-13T21:08:48.935Z,96138
2018-01-13T21:11:17.908Z,96127
2018-01-13T21:13:47.626Z,96128
2018-01-13T21:16:17.374Z,96123
2018-01-13T21:18:46.323Z,96127
2018-01-13T21:21:16.054Z,96123
2018-01-13T21:23:45.039Z,96118
2018-01-13T21:26:14.006Z,96117
2018-01-13T21:28:42.991Z,96122
2018-01-13T21:31:11.978Z,96115
2018-01-13T21:33:40.927Z,96131
2018-01-13T21:36:09.886Z,96117
2018-01-13T21:38:39.639Z,96127
2018-01-13T21:41:08.613Z,96131
2018-01-13T21:43:38.590Z,96130
2018-01-13T21:46:07.582Z,96128
2018-01-13T21:48:36.561Z,96150
2018-01-13T21:51:05.523Z,96137
2018-01-13T21:53:34.505Z,96137
2018-01-13T21:56:03.510Z,96131
2018-01-13T21:58:32.488Z,96139
2018-01-13T22:01:01.503Z,96140
2018-01-13T22:03:30.458Z,96146
2018-01-13T22:06:00.182Z,96137
2018-01-13T22:08:30.020Z,96135
2018-01-13T22:10:59.165Z,96137
2018-01-13T22:13:29.058Z,96126
2018-01-13T22:15:58.045Z,96128
2018-01-13T22:18:29.305Z,96130
2018-01-13T22:20:58.265Z,96154
2018-01-13T22:23:29.230Z,96125
2018-01-13T22:25:58.236Z,96120
2018-01-13T22:28:27.154Z,96123
2018-01-13T22:30:56.123Z,96102
2018-01-13T22:33:25.886Z,96101
2018-01-13T22:35:54.859Z,96093
2018-01-13T22:38:23.898Z,96099
2018-01-13T22:40:53.759Z,96098
2018-01-13T22:43:23.481Z,96090
2018-01-13T22:45:52.550Z,96105
2018-01-13T22:48:21.516Z,96092
2018-01-13T22:50:50.539Z,96095
2018-01-13T22:53:20.255Z,96100
2018-01-13T22:55:49.259Z,96116
2018-01-13T22:58:18.208Z,96100
2018-01-13T23:00:54.584Z,96108
2018-01-13T23:03:23.701Z,96092
2018-01-13T23:05:53.576Z,96096
2018-01-13T23:08:23.420Z,96089
2018-01-13T23:10:53.202Z,96088
2018-01-13T23:13:22.141Z,96080
2018-01-13T23:15:51.242Z,96083
2018-01-13T23:18:20.242Z,96078
2018-01-13T23:20:49.154Z,96074
2018-01-13T23:23:18.269Z,96076
2018-01-13T23:25:47.186Z,96070
2018-01-13T23:28:16.186Z,96066
2018-01-13T23:30:45.178Z,96065
2018-01-13T23:33:14.196Z,96068
2018-01-13T23:35:43.151Z,96071
2018-01-13T23:38:12.901Z,96078
2018-01-13T23:40:41.862Z,96070
2018-01-13T23:43:10.806Z,96080
2018-01-13T23:45:39.789Z,96120
2018-01-13T23:48:08.742Z,96073
2018-01-13T23:50:38.755Z,96080
2018-01-13T23:53:08.691Z,96069
2018-01-13T23:55:37.666Z,96073
2018-01-13T23:58:06.610Z,96079
